Peotone Weather

Nearby METAR Reports

 

KIGQ - Lansing, Illinois, USA
Distance from station: NE 19mi, 30km
Updated: Sat, 23-Sep-2017 4:15am CDT
Clear
Clear
 Wind from calm
Wind: Calm
Temperature: 68°F , 20°C
Dew Point: 66°F , 19°C
Humidity: 94%
Barometer: 30.04 inHg , 1017.3 hPa
Clouds: Clear
Visibility: 7 miles , 11 km
2017/09/23 09:15 KIGQ 230915Z AUTO 00000KT 7SM CLR 20/19 A3004 RMK AO2 T01960193
KIKK - Kankakee, Illinois, USA
Distance from station: S 19mi, 30km
Updated: Sat, 23-Sep-2017 4:15am CDT
Clear
Clear
 Wind from calm
Wind: Calm
Temperature: 66°F , 19°C
Dew Point: 66°F , 19°C
Humidity: 100%
Barometer: 30.05 inHg , 1017.6 hPa
Clouds: Clear
Visibility: 10 miles , 16 km
2017/09/23 09:15 KIKK 230915Z AUTO 00000KT 10SM CLR 19/19 A3005 RMK AO2 T01940190
 
KSJC - Joliet, Illinois, USA
Distance from station: WNW 24mi, 38km
Updated: Sat, 23-Sep-2017 3:53am CDT
Clear
Clear
 Wind from calm
Wind: Calm
Temperature: 55°F , 13°C
Dew Point: 46°F , 8°C
Humidity: 72%
Barometer: 29.90 inHg , 1012.5 hPa
Clouds: Clear
Visibility: 10 miles , 16 km
2017/09/23 08:53 KSJC 230853Z AUTO 00000KT 10SM CLR 13/08 A2990 RMK AO2 SLP125 T01330078 56001 $
KLOT - Romeoville, Illinois, USA
Distance from station: NW 26mi, 41km
Updated: Sat, 23-Sep-2017 4:15am CDT
Clear
Clear
 Wind from S
Wind: S 3 mph , 6 km/h
Temperature: 70°F , 21°C
Dew Point: 66°F , 19°C
Humidity: 88%
Barometer: 30.04 inHg , 1017.3 hPa
Clouds: Clear
Visibility: 10 miles , 16 km
2017/09/23 09:15 KLOT 230915Z AUTO 17003KT 10SM CLR 21/19 A3004 RMK AO2 T02070188
 
KMDW - Midway Airport Chicago, Illinois, USA
Distance from station: N 31mi, 50km
Updated: Sat, 23-Sep-2017 3:53am CDT
Clear
Clear
 Wind from calm
Wind: Calm
Temperature: 77°F , 25°C
Dew Point: 66°F , 19°C
Humidity: 69%
Barometer: 30.03 inHg , 1016.9 hPa
Clouds: Clear
Visibility: 10 miles , 16 km
2017/09/23 08:53 KMDW 230853Z 00000KT 10SM CLR 25/19 A3003 RMK AO2 SLP154 T02500194 58003
KC09 - Morris, Illinois, USA
Distance from station: W 34mi, 54km
Updated: Sat, 23-Sep-2017 4:15am CDT
Clear
Clear
 Wind from calm
Wind: Calm
Temperature: 68°F , 20°C
Dew Point: 66°F , 19°C
Humidity: 94%
Barometer: 30.03 inHg , 1016.9 hPa
Clouds: Clear
Visibility: 10 miles , 16 km
2017/09/23 09:15 KC09 230915Z AUTO 00000KT 10SM CLR 20/19 A3003 RMK AO2 T02000187

Metar display script from Saratoga-Weather.org